This is the latest recevied weather packets stored in our database for station/object ED2YAA-10. If no packets are shown the sender has not sent any weather packets the latest 10 day(s).
| Time | Temp. | Humidity | Pressure | Rain* | Wind** | Luminosity | Snow |
|---|---|---|---|---|---|---|---|
| 1777662695 | 36.11° C | 21% | 931.1 hPa | - | - | - | - |
| 1777661818 | 36.67° C | 20% | 931.1 hPa | - | - | - | - |
| 1777660918 | 37.22° C | 20% | 930.6 hPa | - | - | - | - |
| 1777660018 | 37.78° C | 20% | 930.9 hPa | - | - | - | - |
| 1777659118 | 38.33° C | 19% | 931 hPa | - | - | - | - |
| 1777658213 | 39.44° C | 18% | 931 hPa | - | - | - | - |
| 1777657313 | 40° C | 18% | 931 hPa | - | - | - | - |
| 1777656413 | 40.56° C | 18% | 931.2 hPa | - | - | - | - |
| 1777655513 | 41.11° C | 19% | 931.1 hPa | - | - | - | - |
| 1777654613 | 41.67° C | 18% | 931 hPa | - | - | - | - |
| 1777653713 | 41.67° C | 20% | 931.1 hPa | - | - | - | - |
| 1777652813 | 41.67° C | 18% | 931.1 hPa | - | - | - | - |
| 1777651913 | 41.67° C | 19% | 931.1 hPa | - | - | - | - |
| 1777651012 | 41.67° C | 19% | 931.1 hPa | - | - | - | - |
| 1777650113 | 41.67° C | 19% | 931.3 hPa | - | - | - | - |
| 1777649212 | 41.67° C | 21% | 931.3 hPa | - | - | - | - |
| 1777648312 | 41.11° C | 20% | 931.3 hPa | - | - | - | - |
| 1777647412 | 41.11° C | 21% | 931.4 hPa | - | - | - | - |
| 1777646512 | 41.11° C | 21% | 931.5 hPa | - | - | - | - |
| 1777645612 | 40.56° C | 21% | 931.5 hPa | - | - | - | - |
| 1777644712 | 40° C | 21% | 931.6 hPa | - | - | - | - |
| 1777643812 | 40° C | 23% | 931.9 hPa | - | - | - | - |
| 1777642912 | 39.44° C | 23% | 932 hPa | - | - | - | - |
| 1777642011 | 42.22° C | 21% | 932.3 hPa | - | - | - | - |
| 1777641111 | 30.56° C | 34% | 932.1 hPa | - | - | - | - |
* Rain since midnight (hover to see other rain measurements)
** Current wind speed in m/s (hover to see current wind gust speed)